Data for 01/02/2010

Time Sea-Level Adjusted Pressure Absolute Pressure Temperature Relative Humidity Dew Point Precipitation   
(mb) (inHg) (mb) (inHg) (C) (F) (%) (C) (F) (mm) (in)
11:10 1021 30.15 850 25.1 1.7 35 58 -5.8 21.6 1.86 0.073
11:11 1021 30.15 850 25.1 1.7 35.1 57 -5.8 21.5 1.846 0.073
11:12 1021 30.15 850 25.1 1.7 35.1 57 -5.9 21.4 1.791 0.071
11:13 1021 30.15 850 25.1 1.4 34.6 58 -6 21.2 1.876 0.074
11:14 1021 30.15 851 25.13 1.2 34.2 59 -6 21.2 1.967 0.077
11:15 1021 30.15 851 25.13 1.1 34.1 59 -6.1 21.1 1.984 0.078
11:16 1021 30.15 851 25.13 1.1 33.9 60 -5.8 21.5 1.837 0.072
11:17 1021 30.15 850 25.1 0.8 33.4 62 -5.7 21.7 1.536 0.06
11:18 1021 30.15 850 25.1 0.6 33.1 63 -5.7 21.7 1.292 0.051
11:19 1021 30.15 850 25.1 0.4 32.8 63 -5.8 21.6 1.207 0.048
11:20 1021 30.15 850 25.1 0.3 32.6 64 -5.8 21.6 1.162 0.046
11:21 1021 30.15 850 25.1 0.1 32.1 65 -5.8 21.6 0.952 0.037
11:22 1021 30.15 850 25.1 0.1 32.1 65 -5.8 21.5 0.844 0.033
11:23 1021 30.15 850 25.1 0.2 32.3 63 -5.9 21.3 0.866 0.034
11:24 1021 30.15 850 25.1 0.2 32.4 63 -5.9 21.3 0.883 0.035
11:25 1021 30.15 850 25.1 0.4 32.7 63 -5.9 21.4 0.957 0.038
11:26 1021 30.15 850 25.1 0.5 33 62 -5.8 21.5 1.126 0.044
11:27 1021 30.15 851 25.13 0.7 33.2 62 -5.8 21.5 1.257 0.049
11:28 1021 30.15 851 25.13 0.8 33.5 61 -5.8 21.6 1.342 0.053
11:29 1021 30.15 850 25.1 0.8 33.5 61 -5.8 21.6 1.347 0.053
11:30 1021 30.15 850 25.1 0.8 33.5 61 -5.8 21.5 1.352 0.053
11:31 1021 30.15 850 25.1 0.9 33.6 60 -6 21.3 1.46 0.057
11:32 1021 30.15 850 25.1 1.1 33.9 59 -6 21.2 1.562 0.061
11:33 1021 30.15 850 25.1 1.2 34.2 59 -6 21.1 1.675 0.066
11:34 1021 30.15 850 25.1 1.3 34.4 58 -6.1 21.1 1.783 0.07
11:35 1021 30.15 850 25.1 1.4 34.6 58 -6 21.2 1.85 0.073
11:36 1021 30.15 851 25.13 1.5 34.7 57 -6.1 21 1.958 0.077
11:37 1021 30.15 850 25.1 1.2 34.1 59 -6 21.2 1.782 0.07
11:38 1021 30.15 850 25.1 0.8 33.5 60 -6 21.1 1.475 0.058
11:39 1021 30.15 850 25.1 0.8 33.4 61 -6 21.2 1.322 0.052
11:40 1021 30.15 850 25.1 0.9 33.6 61 -5.9 21.4 1.361 0.054
11:41 1021 30.15 850 25.1 1.3 34.4 59 -5.8 21.5 1.723 0.068
11:42 1021 30.15 851 25.13 1.8 35.2 56 -6 21.3 2.244 0.088
11:43 1021 30.15 851 25.13 2.1 35.7 55 -6.1 21.1 2.696 0.106
11:44 1021 30.15 851 25.13 2.1 35.9 55 -6 21.2 2.86 0.113
11:45 1021 30.15 851 25.13 2.4 36.4 54 -6 21.2 3.137 0.124
11:46 1021 30.15 850 25.1 2.7 36.9 53 -5.9 21.5 3.114 0.123
11:47 1021 30.15 850 25.1 2.7 36.9 54 -5.8 21.6 2.91 0.115
11:48 1021 30.15 850 25.1 2.7 36.9 54 -5.8 21.6 2.808 0.111
11:49 1021 30.15 850 25.1 2.7 36.9 53 -5.9 21.4 2.881 0.113
11:50 1021 30.15 851 25.13 2.6 36.6 54 -5.9 21.4 2.994 0.118
11:51 1021 30.15 850 25.1 2.5 36.5 54 -5.9 21.4 3.085 0.121
11:52 1021 30.15 851 25.13 2.7 36.9 53 -5.9 21.5 3.181 0.125
11:53 1021 30.15 851 25.13 2.7 36.9 54 -5.8 21.6 3.084 0.121
11:54 1021 30.15 850 25.1 2.7 36.8 54 -5.7 21.7 3.05 0.12
11:55 1021 30.15 851 25.13 2.6 36.7 54 -5.7 21.7 3.073 0.121
11:56 1021 30.15 850 25.1 2.6 36.7 54 -5.8 21.5 3.072 0.121
11:57 1021 30.15 850 25.1 2.7 36.8 54 -5.6 21.9 3.05 0.12
11:58 1021 30.15 851 25.13 2.6 36.7 54 -5.7 21.7 3.027 0.119
11:59 1021 30.15 850 25.1 2.5 36.5 54 -5.8 21.5 2.942 0.116
12:00 1021 30.15 851 25.13 2.4 36.4 54 -5.8 21.5 2.908 0.114
12:01 1021 30.15 851 25.13 2.5 36.4 55 -5.7 21.7 2.902 0.114
12:02 1021 30.15 851 25.13 2.4 36.2 55 -5.8 21.6 2.8 0.11
12:03 1021 30.15 851 25.13 2.3 36.1 56 -5.7 21.8 2.8 0.11
12:04 1021 30.15 851 25.13 2.3 36.2 55 -5.8 21.6 2.777 0.109
12:05 1021 30.15 851 25.13 2.4 36.4 55 -5.7 21.8 2.8 0.11
12:06 1021 30.15 851 25.13 2.6 36.7 54 -5.7 21.7 2.794 0.11
12:07 1021 30.15 850 25.1 2.8 37.1 54 -5.6 21.9 2.896 0.114
12:08 1021 30.15 851 25.13 3 37.3 53 -5.6 21.9 2.981 0.117
12:09 1021 30.15 850 25.1 3.1 37.5 53 -5.5 22.1 3.06 0.12
12:10 1021 30.15 851 25.13 3.3 37.9 52 -5.7 21.7 3.156 0.124
12:11 1021 30.15 851 25.13 3.4 38.2 53 -5.4 22.3 3.184 0.125
12:12 1021 30.15 851 25.13 3.5 38.3 54 -5 23 3.167 0.125
12:13 1021 30.15 850 25.1 3.5 38.3 54 -4.9 23.2 3.2 0.126
12:14 1021 30.15 851 25.13 3.4 38.1 54 -5.1 22.8 3.194 0.126
12:15 1021 30.15 851 25.13 3.4 38.1 54 -4.9 23.1 3.206 0.126
12:16 1021 30.15 851 25.13 3.3 38 53 -5.4 22.2 3.17 0.125
12:17 1021 30.15 851 25.13 3.3 37.9 55 -4.8 23.3 3.227 0.127
12:18 1021 30.15 851 25.13 3.2 37.8 54 -5.1 22.8 3.221 0.127
12:19 1021 30.15 851 25.13 3.3 37.9 55 -4.9 23.2 3.258 0.128
12:20 1021 30.15 851 25.13 3.3 38 54 -5.2 22.7 3.275 0.129
12:21 1021 30.15 851 25.13 3.2 37.8 57 -4.5 23.9 3.122 0.123
12:22 1021 30.15 851 25.13 3 37.5 58 -4.5 24 3.03 0.119
12:23 1021 30.15 851 25.13 2.9 37.2 59 -4.3 24.2 2.928 0.115
12:24 1021 30.15 851 25.13 2.8 37 56 -5.1 22.9 2.798 0.11
12:25 1021 30.15 851 25.13 2.7 36.8 58 -4.8 23.4 2.723 0.107
12:26 1021 30.15 851 25.13 2.5 36.6 59 -4.7 23.5 2.7 0.106
12:27 1021 30.15 851 25.13 2.4 36.3 60 -4.6 23.8 2.654 0.104
12:28 1021 30.15 851 25.13 2.3 36.2 61 -4.5 23.9 2.603 0.102
12:29 1021 30.15 851 25.13 2.3 36.1 60 -4.7 23.6 2.563 0.101
12:30 1021 30.15 851 25.13 2.2 35.9 61 -4.6 23.8 2.54 0.1
12:31 1021 30.15 851 25.13 2.1 35.8 60 -4.8 23.3 2.5 0.098
12:32 1021 30.15 851 25.13 2.1 35.7 62 -4.5 23.9 2.5 0.098
12:33 1021 30.15 851 25.13 2.1 35.7 63 -4.3 24.3 2.494 0.098
12:34 1021 30.15 851 25.13 2 35.7 62 -4.5 23.9 2.522 0.099
12:35 1021 30.15 851 25.13 2.1 35.8 61 -4.5 23.8 2.601 0.102
12:36 1021 30.15 851 25.13 2.1 35.7 62 -4.5 23.9 2.555 0.101
12:37 1021 30.15 851 25.13 2 35.6 63 -4.4 24.2 2.498 0.098
12:38 1021 30.15 851 25.13 1.9 35.5 64 -4.2 24.5 2.436 0.096
12:39 1021 30.15 851 25.13 1.8 35.2 63 -4.4 24 2.351 0.093
12:40 1021 30.15 851 25.13 1.7 35.1 63 -4.5 23.9 2.271 0.089
12:41 1021 30.15 851 25.13 1.7 35 64 -4.4 24.1 2.203 0.087
12:42 1021 30.15 851 25.13 1.6 34.9 66 -4.1 24.7 2.152 0.085
12:43 1021 30.15 851 25.13 1.5 34.7 66 -4.2 24.5 2.073 0.082
12:44 1021 30.15 851 25.13 1.5 34.6 65 -4.4 24 2.022 0.08
12:45 1021 30.15 851 25.13 1.5 34.7 65 -4.4 24.1 2.022 0.08
12:46 1021 30.15 851 25.13 1.5 34.7 65 -4.4 24.1 2.022 0.08
12:47 1021 30.15 851 25.13 1.5 34.7 65 -4.4 24.1 2.067 0.081
12:48 1021 30.15 851 25.13 1.5 34.6 66 -4.1 24.6 2.038 0.08
12:49 1021 30.15 851 25.13 1.4 34.6 65 -4.4 24 2.016 0.079
12:50 1021 30.15 851 25.13 1.4 34.5 66 -4.3 24.2 1.953 0.077
12:51 1021 30.15 851 25.13 1.4 34.6 67 -4 24.8 1.987 0.078
12:52 1021 30.15 851 25.13 1.3 34.4 65 -4.5 23.9 1.868 0.074
12:53 1021 30.15 851 25.13 1.4 34.5 64 -4.6 23.7 1.897 0.075
12:54 1021 30.15 851 25.13 1.5 34.6 64 -4.6 23.7 1.987 0.078
12:55 1021 30.15 851 25.13 1.5 34.8 65 -4.4 24.1 2.044 0.08
12:56 1021 30.15 851 25.13 1.6 34.8 65 -4.3 24.2 2.112 0.083
12:57 1021 30.15 851 25.13 1.6 34.9 64 -4.5 24 2.179 0.086
12:58 1021 30.15 851 25.13 1.7 35 64 -4.5 23.9 2.23 0.088
12:59 1021 30.15 851 25.13 1.7 35 64 -4.4 24 2.27 0.089
13:00 1021 30.15 851 25.13 1.7 35 63 -4.5 23.8 2.202 0.087
13:01 1021 30.15 851 25.13 1.6 34.8 63 -4.6 23.6 2.128 0.084
13:02 1021 30.15 851 25.13 1.6 34.8 62 -4.8 23.3 2.066 0.081
13:03 1021 30.15 851 25.13 1.5 34.8 62 -4.9 23.2 2.06 0.081
13:04 1021 30.15 850 25.1 1.6 34.8 62 -5 23.1 2.06 0.081
13:05 1021 30.15 850 25.1 1.6 34.9 62 -4.9 23.2 2.094 0.082
13:06 1021 30.15 850 25.1 1.7 35 62 -4.8 23.3 2.145 0.084
13:07 1021 30.15 850 25.1 1.6 34.9 62 -4.8 23.4 2.139 0.084
13:08 1021 30.15 850 25.1 1.7 35.1 62 -4.9 23.2 2.264 0.089
13:09 1021 30.15 850 25.1 1.9 35.4 61 -4.8 23.3 2.428 0.096
13:10 1021 30.15 850 25.1 1.9 35.5 61 -4.8 23.4 2.513 0.099
13:11 1021 30.15 850 25.1 2 35.5 61 -4.8 23.3 2.536 0.1
13:12 1021 30.15 850 25.1 2.1 35.7 60 -4.9 23.2 2.632 0.104
13:13 1021 30.15 850 25.1 2.1 35.7 60 -4.9 23.1 2.643 0.104
13:14 1021 30.15 850 25.1 2.1 35.8 59 -5 22.9 2.654 0.104
13:15 1021 30.15 850 25.1 2.1 35.8 59 -5.2 22.7 2.66 0.105
13:16 1021 30.15 850 25.1 2.2 35.9 59 -5 23 2.666 0.105
13:17 1021 30.15 850 25.1 2.1 35.8 59 -5 23 2.581 0.102
13:18 1021 30.15 850 25.1 2 35.7 60 -5 23 2.434 0.096
13:19 1021 30.15 850 25.1 1.9 35.4 60 -5 23 2.275 0.09
13:20 1021 30.15 850 25.1 1.9 35.5 61 -4.9 23.2 2.32 0.091
13:21 1021 30.15 850 25.1 2 35.6 60 -4.8 23.3 2.434 0.096
13:22 1021 30.15 850 25.1 2.2 35.9 60 -4.9 23.1 2.569 0.101
13:23 1021 30.15 850 25.1 2.4 36.3 59 -4.7 23.5 2.711 0.107
13:24 1021 30.15 850 25.1 2.4 36.4 59 -4.7 23.5 2.847 0.112
13:25 1021 30.15 850 25.1 2.5 36.5 60 -4.5 23.8 2.892 0.114
13:26 1021 30.15 850 25.1 2.5 36.5 60 -4.6 23.8 2.994 0.118
13:27 1021 30.15 850 25.1 2.6 36.7 60 -4.4 24.2 3.033 0.119
13:28 1021 30.15 850 25.1 2.6 36.7 61 -4.2 24.5 3.101 0.122
13:29 1021 30.15 850 25.1 2.7 36.9 58 -4.7 23.6 3.198 0.126
13:30 1021 30.15 850 25.1 2.9 37.2 59 -4.3 24.2 3.339 0.131
13:31 1021 30.15 850 25.1 3 37.5 57 -4.7 23.6 3.503 0.138
13:32 1021 30.15 850 25.1 3.2 37.7 57 -4.6 23.7 3.616 0.142
13:33 1021 30.15 850 25.1 3.3 38 56 -4.7 23.6 3.758 0.148
13:34 1021 30.15 850 25.1 3.4 38 57 -4.3 24.2 3.899 0.154
13:35 1021 30.15 850 25.1 3.4 38.2 56 -4.6 23.8 3.87 0.152
13:36 1021 30.15 850 25.1 3.5 38.2 58 -4.1 24.5 3.96 0.156
13:37 1021 30.15 850 25.1 3.4 38.1 58 -4.2 24.5 3.903 0.154
13:38 1021 30.15 850 25.1 3.3 37.9 59 -4.1 24.7 3.835 0.151
13:39 1021 30.15 850 25.1 3.2 37.8 60 -3.8 25.2 3.727 0.147
13:40 1021 30.15 850 25.1 3.1 37.6 59 -4.2 24.5 3.546 0.14
13:41 1021 30.15 850 25.1 2.9 37.3 60 -4 24.8 3.415 0.134
13:42 1021 30.15 850 25.1 2.8 37 61 -3.9 25 3.29 0.13
13:43 1021 30.15 850 25.1 2.7 36.8 61 -4 24.8 3.166 0.125
13:44 1021 30.15 850 25.1 2.7 36.8 63 -3.7 25.3 3.08 0.121
13:45 1021 30.15 850 25.1 2.6 36.6 63 -3.7 25.3 3.04 0.12
13:46 1021 30.15 850 25.1 2.4 36.4 63 -3.9 24.9 2.899 0.114
13:47 1021 30.15 850 25.1 2.4 36.3 63 -4 24.8 2.842 0.112
13:48 1021 30.15 850 25.1 2.3 36.2 63 -4.1 24.7 2.808 0.111
13:49 1021 30.15 850 25.1 2.3 36.2 63 -4 24.8 2.751 0.108
13:50 1021 30.15 850 25.1 2.3 36.2 64 -3.8 25.1 2.745 0.108
13:51 1021 30.15 850 25.1 2.3 36.1 65 -3.6 25.6 2.728 0.107
13:52 1021 30.15 850 25.1 2.2 35.9 64 -3.9 25 2.677 0.105
13:53 1021 30.15 850 25.1 2.1 35.8 64 -3.9 25 2.607 0.103
13:54 1021 30.15 850 25.1 2.2 35.9 62 -4.4 24.2 2.647 0.104
13:55 1021 30.15 850 25.1 2.3 36.2 61 -4.5 23.9 2.748 0.108
13:56 1021 30.15 850 25.1 2.6 36.6 60 -4.4 24.1 2.923 0.115
13:57 1021 30.15 850 25.1 2.6 36.7 58 -4.7 23.5 3.042 0.12
13:58 1021 30.15 850 25.1 2.7 36.9 58 -4.6 23.7 3.121 0.123
13:59 1021 30.15 850 25.1 2.7 36.9 58 -4.7 23.5 3.183 0.125
14:00 1021 30.15 850 25.1 2.8 37 59 -4.6 23.8 3.217 0.127
14:01 1021 30.15 850 25.1 2.8 37 57 -4.9 23.1 3.217 0.127
14:02 1021 30.15 850 25.1 2.8 37 57 -4.8 23.4 3.268 0.129
14:03 1021 30.15 850 25.1 2.8 37.1 57 -4.8 23.4 3.268 0.129
14:04 1021 30.15 850 25.1 2.8 37.1 58 -4.6 23.7 3.285 0.129
14:05 1021 30.15 850 25.1 2.8 37 59 -4.5 23.9 3.239 0.128
14:06 1021 30.15 850 25.1 2.7 36.9 58 -4.6 23.6 3.154 0.124
14:07 1021 30.15 850 25.1 2.7 36.9 57 -5.1 22.9 3.131 0.123
14:08 1021 30.15 850 25.1 2.7 36.9 57 -5 23.1 3.187 0.125
14:09 1021 30.15 850 25.1 2.8 37.1 55 -5.4 22.3 3.283 0.129
14:10 1021 30.15 850 25.1 3 37.5 56 -5 23 3.43 0.135
14:11 1021 30.15 850 25.1 3.1 37.5 56 -4.9 23.2 3.543 0.139
14:12 1021 30.15 850 25.1 3.1 37.5 56 -4.9 23.1 3.514 0.138
14:13 1021 30.15 850 25.1 3 37.4 58 -4.5 23.9 3.48 0.137
14:14 1021 30.15 850 25.1 2.9 37.2 59 -4.3 24.3 3.367 0.133
14:15 1021 30.15 850 25.1 2.8 37 60 -4.3 24.2 3.282 0.129
14:16 1021 30.15 850 25.1 2.7 36.8 58 -4.7 23.6 3.169 0.125
14:17 1021 30.15 850 25.1 2.6 36.7 60 -4.4 24 3.13 0.123
14:18 1021 30.15 850 25.1 2.7 36.8 60 -4.2 24.4 3.124 0.123
14:19 1021 30.15 850 25.1 2.6 36.7 60 -4.3 24.3 3.113 0.123
14:20 1021 30.15 850 25.1 2.5 36.6 60 -4.4 24.2 3.017 0.119
14:21 1021 30.15 850 25.1 2.5 36.5 58 -4.9 23.2 2.978 0.117
14:22 1021 30.15 850 25.1 2.6 36.6 59 -4.6 23.8 3.029 0.119
14:23 1021 30.15 850 25.1 2.6 36.7 58 -4.8 23.3 3.103 0.122
14:24 1021 30.15 850 25.1 2.7 36.8 56 -5.2 22.7 3.12 0.123
14:25 1021 30.15 850 25.1 2.7 36.9 58 -4.7 23.5 3.171 0.125
14:26 1021 30.15 850 25.1 2.7 36.9 57 -5 23.1 3.149 0.124
14:27 1021 30.15 850 25.1 2.8 37 54 -5.7 21.8 3.228 0.127
14:28 1021 30.15 850 25.1 2.9 37.2 55 -5.2 22.6 3.296 0.13
14:29 1021 30.15 850 25.1 2.8 37.1 56 -5.1 22.8 3.257 0.128
14:30 1021 30.15 850 25.1 2.8 37 54 -5.7 21.8 3.2 0.126
14:31 1021 30.15 851 25.13 2.8 37.1 57 -4.9 23.2 3.279 0.129
14:32 1021 30.15 850 25.1 2.7 36.8 60 -4.4 24.1 3.127 0.123
14:33 1021 30.15 850 25.1 2.5 36.4 60 -4.5 23.9 2.946 0.116
14:34 1021 30.15 850 25.1 2.4 36.3 61 -4.5 24 2.844 0.112
14:35 1021 30.15 850 25.1 2.3 36.2 58 -5.2 22.6 2.816 0.111
14:36 1021 30.15 850 25.1 2.5 36.5 55 -5.6 22 2.889 0.114
14:37 1021 30.15 850 25.1 2.7 36.8 57 -5 22.9 3.042 0.12
14:38 1021 30.15 851 25.13 2.7 36.8 57 -5 23 3.093 0.122
14:39 1021 30.15 850 25.1 2.6 36.7 59 -4.6 23.7 3.048 0.12
14:40 1021 30.15 850 25.1 2.5 36.5 58 -5 23.1 2.929 0.115
14:41 1021 30.15 851 25.13 2.5 36.5 58 -4.9 23.2 2.901 0.114
14:42 1021 30.15 851 25.13 2.4 36.3 60 -4.6 23.7 2.845 0.112
14:43 1021 30.15 851 25.13 2.3 36.2 59 -4.9 23.2 2.772 0.109
14:44 1021 30.15 851 25.13 2.3 36.1 60 -4.8 23.4 2.704 0.106
14:45 1021 30.15 851 25.13 2.2 35.9 60 -4.7 23.5 2.648 0.104
14:46 1021 30.15 851 25.13 2.2 35.9 60 -4.7 23.6 2.627 0.103
14:47 1021 30.15 851 25.13 2.1 35.8 60 -4.8 23.4 2.581 0.102
14:48 1021 30.15 851 25.13 2.1 35.8 61 -4.6 23.6 2.558 0.101
14:49 1021 30.15 851 25.13 2 35.7 60 -5 23 2.502 0.099
14:50 1022 30.18 851 25.13 2.1 35.8 60 -4.8 23.3 2.547 0.1
14:51 1022 30.18 851 25.13 2.1 35.8 61 -4.6 23.8 2.57 0.101
14:52 1022 30.18 851 25.13 2.1 35.8 61 -4.6 23.7 2.525 0.099
14:53 1022 30.18 851 25.13 2 35.7 62 -4.5 23.8 2.48 0.098
14:54 1022 30.18 851 25.13 2.1 35.7 60 -4.9 23.3 2.503 0.099
14:55 1022 30.18 851 25.13 2.1 35.8 62 -4.4 24.2 2.554 0.101
14:56 1022 30.18 851 25.13 2.1 35.7 62 -4.5 24 2.532 0.1
14:57 1022 30.18 851 25.13 2 35.7 63 -4.4 24.1 2.493 0.098
14:58 1022 30.18 851 25.13 1.9 35.5 62 -4.5 23.8 2.397 0.094
14:59 1022 30.18 851 25.13 1.9 35.4 62 -4.7 23.6 2.38 0.094
15:00 1022 30.18 851 25.13 1.9 35.4 63 -4.4 24 2.318 0.091
15:01 1022 30.18 851 25.13 1.8 35.3 62 -4.6 23.7 2.29 0.09
15:02 1022 30.18 851 25.13 1.8 35.3 63 -4.6 23.8 2.25 0.089
15:03 1022 30.18 851 25.13 1.8 35.2 64 -4.4 24.1 2.177 0.086
15:04 1022 30.18 851 25.13 1.7 35.1 63 -4.6 23.7 2.16 0.085
15:05 1022 30.18 851 25.13 1.8 35.2 63 -4.5 23.8 2.211 0.087
15:06 1022 30.18 851 25.13 1.8 35.3 63 -4.5 23.9 2.24 0.088
15:07 1022 30.18 851 25.13 1.9 35.4 62 -4.5 23.8 2.302 0.091
15:08 1022 30.18 851 25.13 1.9 35.4 62 -4.7 23.6 2.336 0.092
15:09 1022 30.18 851 25.13 2 35.6 63 -4.4 24.1 2.364 0.093
15:10 1022 30.18 851 25.13 2 35.6 63 -4.4 24.2 2.41 0.095
15:11 1022 30.18 851 25.13 2 35.6 61 -4.8 23.3 2.387 0.094
15:12 1022 30.18 851 25.13 2.1 35.8 62 -4.4 24.1 2.5 0.098
15:13 1022 30.18 851 25.13 2.1 35.7 62 -4.4 24.1 2.5 0.098
15:14 1022 30.18 851 25.13 2.1 35.7 62 -4.4 24.1 2.484 0.098
15:15 1022 30.18 851 25.13 2 35.7 62 -4.6 23.7 2.472 0.097
15:16 1022 30.18 851 25.13 2.2 35.9 61 -4.6 23.8 2.58 0.102
15:17 1022 30.18 851 25.13 2.2 35.9 61 -4.5 23.8 2.591 0.102
15:18 1022 30.18 851 25.13 2.1 35.8 63 -4.3 24.3 2.58 0.102
15:19 1022 30.18 851 25.13 2 35.6 63 -4.3 24.2 2.45 0.096
15:20 1022 30.18 851 25.13 1.9 35.4 64 -4.2 24.4 2.359 0.093
15:21 1022 30.18 851 25.13 1.8 35.3 63 -4.5 24 2.303 0.091
15:22 1022 30.18 851 25.13 1.9 35.4 63 -4.5 23.9 2.297 0.09
15:23 1022 30.18 851 25.13 1.9 35.3 63 -4.4 24.1 2.28 0.09
15:24 1022 30.18 851 25.13 1.8 35.3 63 -4.4 24 2.246 0.088
15:25 1022 30.18 851 25.13 1.8 35.2 64 -4.3 24.3 2.184 0.086
15:26 1022 30.18 851 25.13 1.6 35 64 -4.4 24.1 2.122 0.084
15:27 1022 30.18 851 25.13 1.6 35 64 -4.5 23.9 2.082 0.082
15:28 1022 30.18 851 25.13 1.6 34.9 64 -4.5 24 2.088 0.082
15:29 1022 30.18 851 25.13 1.6 34.9 64 -4.5 23.9 2.054 0.081
15:30 1022 30.18 851 25.13 1.6 34.9 64 -4.4 24 2.043 0.08
15:31 1022 30.18 851 25.13 1.6 34.9 65 -4.3 24.3 2.037 0.08
15:32 1022 30.18 851 25.13 1.6 34.8 65 -4.4 24.2 1.981 0.078
15:33 1022 30.18 851 25.13 1.6 34.8 65 -4.4 24.2 1.998 0.079
15:34 1022 30.18 851 25.13 1.6 34.9 66 -4.1 24.5 1.998 0.079
15:35 1022 30.18 851 25.13 1.5 34.8 66 -4.1 24.6 1.947 0.077
15:36 1022 30.18 851 25.13 1.5 34.6 66 -4.2 24.4 1.918 0.076
15:37 1022 30.18 851 25.13 1.4 34.6 66 -4.2 24.5 1.873 0.074
15:38 1022 30.18 851 25.13 1.4 34.5 66 -4.2 24.4 1.805 0.071
15:39 1022 30.18 851 25.13 1.4 34.5 66 -4.3 24.3 1.811 0.071
15:40 1022 30.18 851 25.13 1.4 34.5 67 -4.2 24.5 1.856 0.073
15:41 1022 30.18 851 25.13 1.4 34.5 67 -4.1 24.7 1.794 0.071
15:42 1022 30.18 851 25.13 1.3 34.4 67 -4.2 24.5 1.732 0.068
15:43 1022 30.18 851 25.13 1.3 34.4 67 -4.1 24.6 1.709 0.067
15:44 1022 30.18 851 25.13 1.3 34.3 67 -4.1 24.6 1.698 0.067
15:45 1022 30.18 851 25.13 1.3 34.4 67 -4.1 24.6 1.681 0.066
15:46 1022 30.18 851 25.13 1.3 34.3 68 -4.1 24.7 1.698 0.067
15:47 1022 30.18 851 25.13 1.3 34.3 69 -3.9 25 1.658 0.065
15:48 1022 30.18 851 25.13 1.2 34.1 69 -3.9 24.9 1.59 0.063
15:49 1022 30.18 851 25.13 1.1 34 69 -4 24.9 1.522 0.06
15:50 1022 30.18 851 25.13 1.1 33.9 69 -4 24.7 1.471 0.058
15:51 1022 30.18 851 25.13 1 33.9 69 -4.1 24.6 1.488 0.059
15:52 1022 30.18 851 25.13 1.1 33.9 68 -4.1 24.5 1.443 0.057
15:53 1022 30.18 851 25.13 1.1 33.9 68 -4.3 24.3 1.477 0.058
15:54 1022 30.18 851 25.13 1.2 34.1 67 -4.3 24.3 1.551 0.061
15:55 1022 30.18 851 25.13 1.2 34.2 66 -4.4 24 1.63 0.064
15:56 1022 30.18 851 25.13 1.3 34.3 67 -4.3 24.3 1.675 0.066
15:57 1022 30.18 851 25.13 1.3 34.4 66 -4.2 24.4 1.743 0.069
15:58 1022 30.18 851 25.13 1.3 34.4 67 -4.2 24.4 1.749 0.069
15:59 1022 30.18 851 25.13 1.3 34.4 67 -4.2 24.5 1.754 0.069
16:00 1022 30.18 851 25.13 1.3 34.3 67 -4.2 24.5 1.709 0.067
16:01 1022 30.18 851 25.13 1.3 34.3 67 -4.1 24.6 1.692 0.067
16:02 1022 30.18 851 25.13 1.2 34.2 67 -4.2 24.4 1.66 0.065
16:03 1022 30.18 851 25.13 1.3 34.3 67 -4.2 24.4 1.643 0.065
16:04 1022 30.18 851 25.13 1.3 34.3 67 -4.2 24.5 1.654 0.065
16:05 1022 30.18 851 25.13 1.3 34.3 67 -4.2 24.5 1.648 0.065
16:06 1022 30.18 851 25.13 1.2 34.2 67 -4.2 24.4 1.637 0.064
16:07 1022 30.18 851 25.13 1.2 34.2 67 -4.2 24.5 1.643 0.065
16:08 1022 30.18 851 25.13 1.2 34.2 68 -4.1 24.6 1.638 0.064
16:09 1022 30.18 851 25.13 1.2 34.1 67 -4.2 24.4 1.598 0.063
16:10 1022 30.18 851 25.13 1.2 34.1 66 -4.4 24.1 1.599 0.063
16:11 1022 30.18 851 25.13 1.2 34.2 67 -4.3 24.3 1.633 0.064
16:12 1022 30.18 851 25.13 1.2 34.2 67 -4.2 24.4 1.678 0.066
16:13 1022 30.18 851 25.13 1.2 34.1 68 -4.2 24.5 1.605 0.063
16:14 1022 30.18 851 25.13 1.1 34 68 -4.2 24.4 1.549 0.061
16:15 1022 30.18 851 25.13 1 33.9 68 -4.3 24.3 1.509 0.059
16:16 1022 30.18 851 25.13 1 33.8 67 -4.4 24.1 1.464 0.058
16:17 1022 30.18 851 25.13 0.9 33.7 68 -4.4 24.1 1.368 0.054
16:18 1022 30.18 851 25.13 0.9 33.6 68 -4.4 24.1 1.346 0.053
16:19 1022 30.18 851 25.13 0.9 33.6 68 -4.4 24.1 1.289 0.051
16:20 1022 30.18 851 25.13 0.9 33.6 68 -4.4 24 1.278 0.05
16:21 1022 30.18 851 25.13 0.8 33.5 68 -4.5 24 1.261 0.05
16:22 1022 30.18 851 25.13 0.9 33.6 67 -4.5 24 1.29 0.051
16:23 1022 30.18 851 25.13 0.9 33.6 67 -4.5 23.9 1.33 0.052
16:24 1022 30.18 851 25.13 0.9 33.7 67 -4.5 23.9 1.352 0.053
16:25 1022 30.18 851 25.13 1 33.8 67 -4.5 23.9 1.392 0.055
16:26 1022 30.18 851 25.13 1.1 33.9 67 -4.5 23.9 1.489 0.059
16:27 1022 30.18 851 25.13 1.1 34 66 -4.5 24 1.506 0.059
16:28 1022 30.18 851 25.13 1.2 34.1 66 -4.5 23.9 1.524 0.06
16:29 1022 30.18 851 25.13 1.2 34.1 66 -4.5 23.9 1.569 0.062
16:30 1022 30.18 851 25.13 1.1 34 66 -4.5 24 1.502 0.059
16:31 1022 30.18 851 25.13 1 33.9 67 -4.5 23.9 1.445 0.057
16:32 1022 30.18 852 25.16 1.1 33.9 67 -4.5 23.9 1.445 0.057
16:33 1022 30.18 852 25.16 1.1 33.9 67 -4.5 24 1.417 0.056
16:34 1022 30.18 852 25.16 1 33.8 67 -4.5 24 1.298 0.051
16:35 1022 30.18 852 25.16 0.9 33.6 67 -4.5 23.9 1.275 0.05
16:36 1022 30.18 852 25.16 0.9 33.6 67 -4.5 23.8 1.275 0.05
16:37 1022 30.18 852 25.16 0.9 33.5 67 -4.5 23.9 1.242 0.049
16:38 1022 30.18 852 25.16 0.9 33.6 67 -4.5 23.9 1.282 0.05
16:39 1022 30.18 852 25.16 0.9 33.6 67 -4.6 23.8 1.333 0.052
16:40 1022 30.18 852 25.16 0.9 33.7 67 -4.6 23.8 1.408 0.055
16:41 1022 30.18 852 25.16 1 33.8 67 -4.5 23.8 1.374 0.054
16:42 1022 30.18 851 25.13 1 33.8 67 -4.5 23.8 1.351 0.053
16:43 1022 30.18 852 25.16 1 33.8 67 -4.5 23.9 1.346 0.053
16:44 1022 30.18 851 25.13 0.9 33.7 67 -4.5 23.8 1.335 0.053
16:45 1022 30.18 851 25.13 1 33.7 67 -4.5 23.8 1.278 0.05
16:46 1022 30.18 851 25.13 0.9 33.7 67 -4.6 23.8 1.234 0.049
16:47 1022 30.18 851 25.13 0.9 33.6 66 -4.7 23.5 1.228 0.048
16:48 1022 30.18 851 25.13 0.8 33.5 67 -4.7 23.6 1.171 0.046
16:49 1022 30.18 851 25.13 0.8 33.5 67 -4.6 23.8 1.161 0.046
16:50 1022 30.18 851 25.13 0.8 33.5 67 -4.6 23.7 1.212 0.048
16:51 1022 30.18 851 25.13 0.9 33.6 67 -4.6 23.8 1.274 0.05
16:52 1022 30.18 851 25.13 0.8 33.5 67 -4.7 23.5 1.274 0.05
16:53 1022 30.18 851 25.13 0.6 33.1 67 -4.8 23.4 1.093 0.043
16:54 1022 30.18 851 25.13 0.5 32.9 68 -4.7 23.5 0.946 0.037
16:55 1022 30.18 851 25.13 0.5 32.9 68 -4.7 23.6 0.924 0.036
16:56 1022 30.18 851 25.13 0.6 33 67 -4.9 23.2 0.975 0.038
16:57 1022 30.18 851 25.13 0.7 33.2 66 -4.9 23.3 1.031 0.041
16:58 1022 30.18 851 25.13 0.8 33.4 66 -4.7 23.5 1.162 0.046
16:59 1022 30.18 851 25.13 0.8 33.5 65 -5 22.9 1.218 0.048
17:00 1022 30.18 851 25.13 1 33.7 64 -5.1 22.8 1.309 0.052
17:01 1022 30.18 851 25.13 1 33.9 63 -5.2 22.7 1.354 0.053
17:02 1022 30.18 851 25.13 0.9 33.7 64 -5.2 22.7 1.349 0.053
17:03 1022 30.18 852 25.16 0.8 33.5 64 -5.2 22.7 1.247 0.049
17:04 1022 30.18 852 25.16 0.7 33.3 64 -5.2 22.6 1.072 0.042
17:05 1022 30.18 852 25.16 0.4 32.8 67 -4.9 23.2 0.681 0.027
17:06 1022 30.18 852 25.16 0 32 72 -4.5 23.8 0.256 0.01
17:07 1022 30.18 852 25.16 -0.2 31.6 74 -4.4 24.1 0.087 0.003
17:08 1022 30.18 852 25.16 -0.3 31.4 74 -4.4 24.1 0.109 0.004
17:09 1022 30.18 852 25.16 -0.3 31.4 74 -4.4 24 0.172 0.007
17:10 1023 30.21 852 25.16 -0.3 31.5 74 -4.4 24.2 0.109 0.004
17:11 1023 30.21 852 25.16 -0.2 31.6 75 -4.2 24.4 0.217 0.009
17:12 1023 30.21 852 25.16 -0.1 31.9 73 -4.3 24.3 0.409 0.016
17:13 1023 30.21 852 25.16 0 32 73 -4.2 24.4 0.455 0.018
17:14 1023 30.21 852 25.16 0 32 74 -4.2 24.5 0.387 0.015
17:15 1023 30.21 852 25.16 -0 31.9 75 -4 24.8 0.33 0.013
17:16 1023 30.21 852 25.16 -0.1 31.8 74 -4.1 24.6 0.308 0.012
17:17 1023 30.21 852 25.16 -0.1 31.8 74 -4.1 24.6 0.404 0.016
17:18 1023 30.21 852 25.16 -0 32 74 -4.1 24.7 0.415 0.016
17:19 1023 30.21 852 25.16 0 32 74 -4.1 24.6 0.478 0.019
17:20 1023 30.21 852 25.16 0 32.1 73 -4.2 24.5 0.461 0.018
17:21 1023 30.21 852 25.16 0.1 32.1 73 -4.3 24.3 0.506 0.02
17:22 1023 30.21 852 25.16 0.2 32.4 72 -4.3 24.2 0.591 0.023
17:23 1023 30.21 852 25.16 0.3 32.6 71 -4.4 24.1 0.749 0.029
17:24 1023 30.21 852 25.16 0.5 32.8 70 -4.5 24 0.902 0.036
17:25 1023 30.21 852 25.16 0.6 33.1 69 -4.4 24.1 0.959 0.038
17:26 1023 30.21 852 25.16 0.6 33 70 -4.3 24.3 0.902 0.036
17:27 1023 30.21 852 25.16 0.5 32.9 71 -4.2 24.4 0.846 0.033
17:28 1023 30.21 852 25.16 0.4 32.8 71 -4.2 24.4 0.829 0.033
17:29 1023 30.21 852 25.16 0.4 32.7 71 -4.3 24.2 0.789 0.031
17:30 1023 30.21 852 25.16 0.4 32.8 70 -4.4 24 0.891 0.035
17:31 1023 30.21 852 25.16 0.6 33 69 -4.5 24 1.027 0.04
17:32 1023 30.21 852 25.16 0.7 33.2 69 -4.4 24 1.1 0.043
17:33 1023 30.21 852 25.16 0.7 33.3 68 -4.6 23.8 1.197 0.047
17:34 1023 30.21 852 25.16 0.8 33.5 67 -4.5 23.9 1.299 0.051
17:35 1023 30.21 852 25.16 0.9 33.6 68 -4.4 24.1 1.242 0.049
17:36 1023 30.21 852 25.16 0.9 33.6 67 -4.6 23.8 1.31 0.052
17:37 1023 30.21 852 25.16 1 33.8 66 -4.6 23.7 1.463 0.058
17:38 1023 30.21 852 25.16 1.1 34.1 66 -4.5 23.8 1.576 0.062
17:39 1023 30.21 852 25.16 1.2 34.1 66 -4.5 24 1.589 0.063
17:40 1023 30.21 852 25.16 1.2 34.2 65 -4.6 23.8 1.611 0.063
17:41 1023 30.21 852 25.16 1.2 34.2 65 -4.5 23.8 1.691 0.067
17:42 1023 30.21 852 25.16 1.3 34.3 65 -4.5 23.9 1.669 0.066
17:43 1023 30.21 852 25.16 1.2 34.2 66 -4.5 24 1.647 0.065
17:44 1023 30.21 852 25.16 1.2 34.1 66 -4.5 24 1.601 0.063
17:45 1023 30.21 852 25.16 1.1 34 66 -4.5 24 1.538 0.061
17:46 1023 30.21 852 25.16 1.1 34 67 -4.4 24 1.471 0.058
17:47 1023 30.21 852 25.16 1.1 33.9 67 -4.4 24 1.477 0.058
17:48 1023 30.21 852 25.16 1 33.9 67 -4.4 24 1.392 0.055
17:49 1023 30.21 852 25.16 1 33.7 68 -4.3 24.2 1.364 0.054
17:50 1023 30.21 852 25.16 0.8 33.4 68 -4.4 24 1.211 0.048
17:51 1023 30.21 852 25.16 0.7 33.3 68 -4.5 24 1.184 0.047
17:52 1023 30.21 852 25.16 0.8 33.4 68 -4.5 24 1.15 0.045
17:53 1023 30.21 852 25.16 0.7 33.3 68 -4.5 23.9 1.173 0.046
17:54 1023 30.21 852 25.16 0.8 33.4 68 -4.5 23.9 1.19 0.047
17:55 1023 30.21 852 25.16 0.8 33.5 68 -4.5 23.9 1.213 0.048
17:56 1023 30.21 852 25.16 0.9 33.5 68 -4.4 24 1.23 0.048
17:57 1023 30.21 852 25.16 0.8 33.5 68 -4.5 23.9 1.19 0.047
17:58 1023 30.21 852 25.16 0.8 33.5 68 -4.5 23.9 1.219 0.048
17:59 1023 30.21 852 25.16 0.8 33.4 68 -4.5 23.9 1.191 0.047
18:00 1023 30.21 852 25.16 0.8 33.5 68 -4.5 23.9 1.202 0.047
18:01 1023 30.21 852 25.16 0.8 33.4 68 -4.5 23.9 1.219 0.048
18:02 1023 30.21 852 25.16 0.8 33.5 68 -4.5 23.9 1.214 0.048
18:03 1023 30.21 852 25.16 0.8 33.4 68 -4.5 23.8 1.202 0.047
18:04 1023 30.21 852 25.16 0.8 33.4 67 -4.6 23.8 1.219 0.048
18:05 1023 30.21 852 25.16 0.8 33.5 67 -4.6 23.8 1.265 0.05
18:06 1023 30.21 852 25.16 0.8 33.5 67 -4.6 23.8 1.276 0.05
18:07 1023 30.21 852 25.16 0.8 33.5 67 -4.6 23.6 1.305 0.051
18:08 1023 30.21 852 25.16 0.9 33.6 67 -4.6 23.8 1.361 0.054
18:09 1023 30.21 852 25.16 0.8 33.5 67 -4.5 23.8 1.327 0.052
18:10 1023 30.21 852 25.16 0.7 33.3 68 -4.5 24 1.237 0.049
18:11 1023 30.21 852 25.16 0.6 33.1 69 -4.5 24 1.118 0.044
18:12 1023 30.21 852 25.16 0.6 33 69 -4.5 23.9 1.028 0.04
18:13 1023 30.21 852 25.16 0.5 32.9 69 -4.6 23.8 0.977 0.038
18:14 1023 30.21 852 25.16 0.5 32.9 69 -4.6 23.7 0.926 0.036
18:15 1023 30.21 852 25.16 0.5 32.9 69 -4.6 23.8 0.88 0.035
18:16 1023 30.21 852 25.16 0.5 33 68 -4.6 23.7 0.948 0.037